Portada
METAR-TAF:

METAR-TAF

Aeroports :

Plataforma petroliera

Goeree Le, Països Baixos

latitud: 51-55-33N, longitud: 3-40-12E, altitud: 19 m

Observació

L'informe es va fer fa 32 minuts, a les 07:55 UTC
Vent 26 kt del Oest/Sud-Oest
Temperatura 11°C
Humitat 62%
Pressió 996 hPa
Visibilitat 10 km o més

METAR: EHSC 060755Z AUTO 25026KT 9999 ///////// 11/04 Q0996 W14/H19

Hora: 10:27 (08:27 UTC)


TAF: manca

Observacions i pronòstics meteorològics de més de 4000 aeroports (METAR i TAF).

Les estacions disponibles són els punts grocs i vermells al mapa.

Posi el ratolí al punt desitjat per veure el nom de l'estació.

Feu clic per veure les observacions i els pronòstics meteorològics.

Per canviar el mapa: feu clic els botons verds amb una creu de color negre per apropar; al botó verd amb un guió per allunyar la imatge; o en les fletxes verdes per a mapes adjacents.


METAR-TAF: